Back to Top

Language: 

My Weather Underground Personal Weather Station Historical Data with Graphs...

Delerius Weather Station Historical Data
Daily Summary for April 15, 2017 Units:  English    Metric   Both
« Previous Day
Next Day »
Daily Weekly Monthly Yearly Custom
  High: Low: Average:
Temperature: 55.0 °F 41.7 °F 46.9 °F
Dew Point: 43.6 °F 35.0 °F 39.2 °F
Humidity: 90 % 53 % 75 %
Wind Speed: 20.0 mph 2.0 mph 10.5 mph
Wind Gust: 35.0 mph - -
Wind:- - WNW
Pressure: 30.12 in 29.91 in -
Precipitation: 0.02 in    
Historical Graphs
 
 
Tabular Data for April 15, 2017
Time Temperature Dew Point Pressure Wind Wind Speed Wind Gust Humidity Rainfall Rate (Hourly) solar Conditions
00:04 46.4 °F 43.6 °F 29.91 in WNW 6.0 mph 13.0 mph 90 % 0.01 in 0 W/m2
00:09 46.2 °F 43.4 °F 29.91 in WNW 7.0 mph 13.0 mph 90 % 0.01 in 0 W/m2
00:14 46.2 °F 43.4 °F 29.91 in WNW 7.0 mph 13.0 mph 90 % 0.00 in 0 W/m2
00:19 46.2 °F 43.4 °F 29.91 in WNW 8.0 mph 15.0 mph 90 % 0.00 in 0 W/m2
00:24 46.2 °F 43.2 °F 29.91 in WNW 8.0 mph 15.0 mph 89 % 0.00 in 0 W/m2
00:29 46.4 °F 43.3 °F 29.91 in WNW 9.0 mph 13.0 mph 89 % 0.00 in 0 W/m2
00:32 46.6 °F 43.5 °F 29.91 in WNW 9.0 mph 15.0 mph 89 % 0.00 in 0 W/m2
00:37 46.6 °F 43.5 °F 29.92 in WNW 7.0 mph 15.0 mph 89 % 0.00 in 0 W/m2
00:42 46.6 °F 43.5 °F 29.92 in NW 6.0 mph 10.0 mph 89 % 0.00 in 0 W/m2
00:47 46.6 °F 43.2 °F 29.92 in WNW 7.0 mph 14.0 mph 88 % 0.00 in 0 W/m2
00:52 46.6 °F 42.9 °F 29.92 in WNW 7.0 mph 14.0 mph 87 % 0.00 in 0 W/m2
01:02 46.6 °F 42.9 °F 29.92 in NW 5.0 mph 10.0 mph 87 % 0.00 in 0 W/m2
01:07 46.6 °F 42.9 °F 29.92 in NW 5.0 mph 10.0 mph 87 % 0.00 in 0 W/m2
01:12 46.6 °F 42.9 °F 29.92 in WNW 5.0 mph 10.0 mph 87 % 0.00 in 0 W/m2
01:17 46.6 °F 43.2 °F 29.92 in WNW 5.0 mph 10.0 mph 88 % 0.00 in 0 W/m2
01:22 46.4 °F 42.7 °F 29.92 in WNW 6.0 mph 10.0 mph 87 % 0.00 in 0 W/m2
01:27 46.4 °F 42.7 °F 29.92 in WNW 7.0 mph 12.0 mph 87 % 0.00 in 0 W/m2
01:32 46.4 °F 42.7 °F 29.92 in West 8.0 mph 12.0 mph 87 % 0.00 in 0 W/m2
01:37 46.2 °F 42.3 °F 29.92 in West 7.0 mph 11.0 mph 86 % 0.00 in 0 W/m2
01:42 46.2 °F 42.3 °F 29.92 in West 7.0 mph 12.0 mph 86 % 0.00 in 0 W/m2
01:47 46.2 °F 42.3 °F 29.92 in WNW 6.0 mph 12.0 mph 86 % 0.00 in 0 W/m2
01:52 46.0 °F 42.1 °F 29.92 in WNW 6.0 mph 10.0 mph 86 % 0.00 in 0 W/m2
01:57 46.0 °F 42.1 °F 29.92 in WNW 6.0 mph 12.0 mph 86 % 0.00 in 0 W/m2
02:02 46.0 °F 42.1 °F 29.92 in WNW 7.0 mph 12.0 mph 86 % 0.00 in 0 W/m2
02:07 46.2 °F 42.3 °F 29.92 in WNW 5.0 mph 12.0 mph 86 % 0.00 in 0 W/m2
02:12 46.2 °F 42.3 °F 29.92 in WNW 4.0 mph 8.0 mph 86 % 0.00 in 0 W/m2
02:17 46.2 °F 42.3 °F 29.92 in WNW 5.0 mph 10.0 mph 86 % 0.00 in 0 W/m2
02:22 46.2 °F 42.3 °F 29.92 in WNW 6.0 mph 13.0 mph 86 % 0.00 in 0 W/m2
02:27 46.0 °F 41.8 °F 29.92 in NW 7.0 mph 14.0 mph 85 % 0.00 in 0 W/m2
02:32 46.0 °F 41.5 °F 29.92 in NW 8.0 mph 15.0 mph 84 % 0.00 in 0 W/m2
02:37 46.0 °F 41.5 °F 29.93 in WNW 7.0 mph 15.0 mph 84 % 0.00 in 0 W/m2
02:42 45.9 °F 41.0 °F 29.93 in WNW 7.0 mph 13.0 mph 83 % 0.00 in 0 W/m2
02:47 45.7 °F 40.8 °F 29.93 in WNW 7.0 mph 12.0 mph 83 % 0.00 in 0 W/m2
02:52 45.3 °F 40.1 °F 29.93 in WNW 8.0 mph 19.0 mph 82 % 0.00 in 0 W/m2
02:57 45.1 °F 40.0 °F 29.93 in WNW 9.0 mph 19.0 mph 82 % 0.00 in 0 W/m2
03:02 45.0 °F 39.8 °F 29.93 in WNW 8.0 mph 14.0 mph 82 % 0.00 in 0 W/m2
03:07 44.8 °F 39.9 °F 29.93 in WNW 7.0 mph 13.0 mph 83 % 0.00 in 0 W/m2
03:12 44.8 °F 39.9 °F 29.93 in WNW 7.0 mph 11.0 mph 83 % 0.00 in 0 W/m2
03:22 44.2 °F 39.7 °F 29.93 in WNW 5.0 mph 9.0 mph 84 % 0.00 in 0 W/m2
03:27 44.2 °F 39.7 °F 29.93 in WNW 5.0 mph 9.0 mph 84 % 0.00 in 0 W/m2
03:32 44.1 °F 39.8 °F 29.93 in WNW 4.0 mph 9.0 mph 85 % 0.00 in 0 W/m2
03:38 43.9 °F 39.7 °F 29.94 in WNW 3.0 mph 7.0 mph 85 % 0.00 in 0 W/m2
03:43 43.9 °F 40.0 °F 29.94 in WNW 3.0 mph 7.0 mph 86 % 0.00 in 0 W/m2
03:48 43.7 °F 39.8 °F 29.94 in WNW 3.0 mph 8.0 mph 86 % 0.00 in 0 W/m2
03:53 43.7 °F 39.8 °F 29.94 in WNW 3.0 mph 8.0 mph 86 % 0.00 in 0 W/m2
03:58 43.7 °F 39.8 °F 29.94 in WNW 4.0 mph 8.0 mph 86 % 0.00 in 0 W/m2
04:03 43.5 °F 39.6 °F 29.94 in WNW 4.0 mph 9.0 mph 86 % 0.00 in 0 W/m2
04:08 43.3 °F 39.4 °F 29.94 in WNW 4.0 mph 9.0 mph 86 % 0.00 in 0 W/m2
04:13 43.3 °F 39.4 °F 29.94 in WNW 5.0 mph 12.0 mph 86 % 0.00 in 0 W/m2
04:18 43.3 °F 39.4 °F 29.94 in WNW 4.0 mph 12.0 mph 86 % 0.00 in 0 W/m2
04:23 43.3 °F 39.4 °F 29.94 in WNW 3.0 mph 8.0 mph 86 % 0.00 in 0 W/m2
04:24 43.3 °F 39.4 °F 29.94 in WNW 3.0 mph 8.0 mph 86 % 0.00 in 0 W/m2
04:29 43.2 °F 39.6 °F 29.95 in WNW 3.0 mph 8.0 mph 87 % 0.00 in 0 W/m2
04:34 43.2 °F 39.6 °F 29.95 in WNW 3.0 mph 7.0 mph 87 % 0.00 in 0 W/m2
04:39 43.2 °F 39.6 °F 29.95 in WNW 3.0 mph 7.0 mph 87 % 0.00 in 0 W/m2
04:44 43.2 °F 39.6 °F 29.95 in WNW 4.0 mph 10.0 mph 87 % 0.00 in 0 W/m2
04:49 43.0 °F 39.1 °F 29.95 in WNW 6.0 mph 13.0 mph 86 % 0.00 in 0 W/m2
04:54 43.0 °F 39.1 °F 29.95 in West 8.0 mph 14.0 mph 86 % 0.00 in 0 W/m2
04:59 43.0 °F 38.8 °F 29.95 in West 9.0 mph 19.0 mph 85 % 0.00 in 0 W/m2
05:04 43.0 °F 38.8 °F 29.95 in WNW 8.0 mph 19.0 mph 85 % 0.00 in 0 W/m2
05:09 43.0 °F 38.8 °F 29.95 in WNW 7.0 mph 13.0 mph 85 % 0.00 in 0 W/m2
05:14 42.8 °F 38.6 °F 29.95 in WNW 7.0 mph 13.0 mph 85 % 0.00 in 0 W/m2
05:19 42.6 °F 38.4 °F 29.95 in WNW 6.0 mph 11.0 mph 85 % 0.00 in 0 W/m2
05:24 42.4 °F 37.9 °F 29.95 in West 6.0 mph 12.0 mph 84 % 0.00 in 0 W/m2
05:29 42.3 °F 37.8 °F 29.95 in West 6.0 mph 12.0 mph 84 % 0.00 in 0 W/m2
05:34 42.1 °F 37.6 °F 29.95 in West 6.0 mph 12.0 mph 84 % 0.00 in 0 W/m2
05:39 42.1 °F 37.6 °F 29.95 in West 6.0 mph 13.0 mph 84 % 0.00 in 0 W/m2
05:44 41.9 °F 37.7 °F 29.95 in West 6.0 mph 13.0 mph 85 % 0.00 in 0 W/m2
05:49 41.7 °F 37.5 °F 29.95 in WNW 6.0 mph 12.0 mph 85 % 0.00 in 0 W/m2
05:54 41.7 °F 37.5 °F 29.95 in WNW 7.0 mph 14.0 mph 85 % 0.00 in 0 W/m2
05:59 41.9 °F 37.7 °F 29.95 in West 7.0 mph 14.0 mph 85 % 0.00 in 0 W/m2
06:04 42.1 °F 38.2 °F 29.95 in West 6.0 mph 11.0 mph 86 % 0.00 in 5 W/m2
06:09 42.1 °F 38.2 °F 29.95 in West 8.0 mph 14.0 mph 86 % 0.00 in 9 W/m2
06:14 42.1 °F 38.5 °F 29.95 in WNW 9.0 mph 18.0 mph 87 % 0.00 in 16 W/m2
06:19 42.1 °F 38.8 °F 29.96 in WNW 10.0 mph 18.0 mph 88 % 0.00 in 23 W/m2
06:24 42.1 °F 38.8 °F 29.95 in WNW 10.0 mph 18.0 mph 88 % 0.00 in 19 W/m2
06:29 41.7 °F 38.7 °F 29.95 in West 11.0 mph 19.0 mph 89 % 0.00 in 19 W/m2
06:34 41.7 °F 38.7 °F 29.95 in West 11.0 mph 19.0 mph 89 % 0.00 in 23 W/m2
06:39 41.7 °F 38.7 °F 29.95 in West 11.0 mph 16.0 mph 89 % 0.00 in 26 W/m2
06:44 41.7 °F 38.7 °F 29.95 in West 11.0 mph 18.0 mph 89 % 0.00 in 30 W/m2
06:49 41.9 °F 38.6 °F 29.95 in West 12.0 mph 22.0 mph 88 % 0.00 in 35 W/m2
06:54 42.1 °F 38.8 °F 29.95 in West 12.0 mph 22.0 mph 88 % 0.00 in 40 W/m2
07:00 42.1 °F 38.5 °F 29.95 in West 11.0 mph 20.0 mph 87 % 0.00 in 49 W/m2
07:05 42.3 °F 38.4 °F 29.95 in West 12.0 mph 19.0 mph 86 % 0.00 in 63 W/m2
07:10 42.3 °F 38.4 °F 29.95 in West 12.0 mph 20.0 mph 86 % 0.00 in 88 W/m2
07:15 42.4 °F 38.5 °F 29.95 in West 12.0 mph 22.0 mph 86 % 0.00 in 81 W/m2
07:20 42.6 °F 38.4 °F 29.96 in West 13.0 mph 23.0 mph 85 % 0.00 in 86 W/m2
07:25 43.0 °F 38.5 °F 29.96 in West 15.0 mph 24.0 mph 84 % 0.00 in 102 W/m2
07:30 43.2 °F 38.7 °F 29.96 in West 15.0 mph 25.0 mph 84 % 0.00 in 90 W/m2
07:35 43.3 °F 38.5 °F 29.97 in West 14.0 mph 25.0 mph 83 % 0.00 in 90 W/m2
07:40 43.3 °F 38.5 °F 29.97 in WNW 15.0 mph 25.0 mph 83 % 0.00 in 100 W/m2
07:45 43.5 °F 38.7 °F 29.97 in WNW 13.0 mph 25.0 mph 83 % 0.00 in 128 W/m2
07:50 43.7 °F 38.9 °F 29.97 in WNW 13.0 mph 23.0 mph 83 % 0.00 in 149 W/m2
07:55 43.9 °F 38.7 °F 29.97 in WNW 14.0 mph 24.0 mph 82 % 0.00 in 156 W/m2
08:00 44.2 °F 39.1 °F 29.97 in WNW 15.0 mph 28.0 mph 82 % 0.00 in 155 W/m2
08:05 44.2 °F 38.8 °F 29.98 in WNW 14.0 mph 28.0 mph 81 % 0.00 in 155 W/m2
08:10 44.4 °F 39.0 °F 29.98 in WNW 13.0 mph 22.0 mph 81 % 0.00 in 153 W/m2
08:15 44.4 °F 39.0 °F 29.98 in WNW 13.0 mph 20.0 mph 81 % 0.00 in 165 W/m2
08:20 44.6 °F 39.1 °F 29.98 in WNW 14.0 mph 23.0 mph 81 % 0.00 in 167 W/m2
08:25 44.8 °F 39.0 °F 29.99 in WNW 15.0 mph 25.0 mph 80 % 0.00 in 151 W/m2
08:30 44.8 °F 39.0 °F 29.98 in WNW 14.0 mph 25.0 mph 80 % 0.00 in 139 W/m2
08:35 44.8 °F 39.0 °F 29.99 in WNW 13.0 mph 21.0 mph 80 % 0.00 in 151 W/m2
08:40 44.8 °F 39.0 °F 29.98 in WNW 12.0 mph 20.0 mph 80 % 0.00 in 163 W/m2
08:45 45.0 °F 38.8 °F 29.98 in WNW 12.0 mph 21.0 mph 79 % 0.00 in 153 W/m2
08:50 45.0 °F 38.8 °F 29.98 in WNW 13.0 mph 22.0 mph 79 % 0.00 in 142 W/m2
08:55 45.0 °F 38.5 °F 29.98 in WNW 13.0 mph 22.0 mph 78 % 0.00 in 153 W/m2
09:00 45.1 °F 38.7 °F 29.99 in WNW 14.0 mph 25.0 mph 78 % 0.00 in 160 W/m2
09:05 45.1 °F 38.7 °F 29.99 in WNW 14.0 mph 25.0 mph 78 % 0.00 in 163 W/m2
09:10 45.3 °F 38.9 °F 29.99 in WNW 13.0 mph 24.0 mph 78 % 0.00 in 163 W/m2
09:15 45.3 °F 38.5 °F 29.99 in WNW 14.0 mph 24.0 mph 77 % 0.00 in 172 W/m2
09:20 45.7 °F 39.2 °F 29.99 in WNW 14.0 mph 23.0 mph 78 % 0.00 in 178 W/m2
09:25 45.7 °F 39.2 °F 29.99 in WNW 13.0 mph 22.0 mph 78 % 0.00 in 186 W/m2
09:35 46.0 °F 39.6 °F 30.00 in WNW 10.0 mph 19.0 mph 78 % 0.00 in 183 W/m2
09:40 46.0 °F 38.9 °F 30.00 in WNW 10.0 mph 19.0 mph 76 % 0.00 in 197 W/m2
09:45 46.2 °F 39.1 °F 30.00 in WNW 11.0 mph 23.0 mph 76 % 0.00 in 227 W/m2
09:50 46.6 °F 39.1 °F 30.00 in WNW 11.0 mph 23.0 mph 75 % 0.00 in 246 W/m2
09:55 46.8 °F 38.9 °F 30.01 in WNW 12.0 mph 23.0 mph 74 % 0.00 in 262 W/m2
10:00 46.9 °F 39.1 °F 30.01 in WNW 13.0 mph 23.0 mph 74 % 0.00 in 244 W/m2
10:05 47.1 °F 38.9 °F 30.01 in WNW 12.0 mph 20.0 mph 73 % 0.00 in 225 W/m2
10:10 47.5 °F 39.6 °F 30.01 in WNW 12.0 mph 20.0 mph 74 % 0.00 in 234 W/m2
10:15 47.5 °F 39.3 °F 30.01 in WNW 11.0 mph 21.0 mph 73 % 0.00 in 239 W/m2
10:20 47.5 °F 38.9 °F 30.01 in WNW 12.0 mph 22.0 mph 72 % 0.00 in 244 W/m2
10:25 47.7 °F 39.1 °F 30.01 in West 12.0 mph 22.0 mph 72 % 0.00 in 237 W/m2
10:30 47.8 °F 38.9 °F 30.01 in WNW 11.0 mph 18.0 mph 71 % 0.00 in 253 W/m2
10:35 48.0 °F 39.1 °F 30.01 in WNW 11.0 mph 18.0 mph 71 % 0.00 in 276 W/m2
10:40 48.2 °F 39.2 °F 30.02 in WNW 11.0 mph 20.0 mph 71 % 0.00 in 241 W/m2
10:45 48.4 °F 39.4 °F 30.01 in WNW 11.0 mph 20.0 mph 71 % 0.00 in 420 W/m2
10:55 49.1 °F 39.4 °F 30.01 in WNW 12.0 mph 22.0 mph 69 % 0.00 in 425 W/m2
11:00 49.6 °F 39.1 °F 30.01 in WNW 12.0 mph 22.0 mph 67 % 0.00 in 461 W/m2
11:05 50.2 °F 39.3 °F 30.01 in WNW 12.0 mph 20.0 mph 66 % 0.00 in 336 W/m2
11:10 50.4 °F 39.0 °F 30.01 in WNW 14.0 mph 24.0 mph 65 % 0.00 in 417 W/m2
11:15 50.2 °F 38.9 °F 30.01 in West 16.0 mph 25.0 mph 65 % 0.00 in 360 W/m2
11:20 50.5 °F 39.2 °F 30.01 in WNW 14.0 mph 25.0 mph 65 % 0.00 in 369 W/m2
11:25 50.7 °F 39.0 °F 30.01 in WNW 12.0 mph 23.0 mph 64 % 0.00 in 353 W/m2
11:30 50.9 °F 39.5 °F 30.02 in WNW 12.0 mph 23.0 mph 65 % 0.00 in 552 W/m2
11:35 51.3 °F 39.1 °F 30.01 in WNW 14.0 mph 25.0 mph 63 % 0.00 in 858 W/m2
11:41 51.6 °F 39.4 °F 30.02 in WNW 16.0 mph 26.0 mph 63 % 0.00 in 278 W/m2
11:46 51.6 °F 39.0 °F 30.02 in WNW 15.0 mph 26.0 mph 62 % 0.00 in 352 W/m2
11:51 52.0 °F 38.9 °F 30.02 in WNW 14.0 mph 23.0 mph 61 % 0.00 in 844 W/m2
11:56 52.5 °F 39.0 °F 30.02 in West 14.0 mph 23.0 mph 60 % 0.00 in 645 W/m2
12:01 52.3 °F 38.9 °F 30.02 in West 15.0 mph 25.0 mph 60 % 0.00 in 185 W/m2
12:06 51.4 °F 38.0 °F 30.02 in West 16.0 mph 26.0 mph 60 % 0.00 in 318 W/m2
12:11 51.3 °F 37.8 °F 30.02 in West 16.0 mph 26.0 mph 60 % 0.00 in 339 W/m2
12:16 51.3 °F 37.4 °F 30.02 in WNW 14.0 mph 25.0 mph 59 % 0.00 in 329 W/m2
12:21 51.4 °F 37.6 °F 30.02 in WNW 13.0 mph 24.0 mph 59 % 0.00 in 216 W/m2
12:26 51.3 °F 37.8 °F 30.02 in WNW 14.0 mph 23.0 mph 60 % 0.00 in 248 W/m2
12:31 51.3 °F 37.8 °F 30.02 in WNW 13.0 mph 23.0 mph 60 % 0.00 in 359 W/m2
12:36 51.8 °F 39.2 °F 30.02 in WNW 12.0 mph 21.0 mph 62 % 0.00 in 1032 W/m2
12:41 52.9 °F 38.9 °F 30.02 in WNW 14.0 mph 28.0 mph 59 % 0.00 in 299 W/m2
12:46 53.2 °F 39.3 °F 30.02 in West 15.0 mph 28.0 mph 59 % 0.00 in 1002 W/m2
12:51 54.0 °F 39.5 °F 30.02 in West 14.0 mph 25.0 mph 58 % 0.00 in 1002 W/m2
12:56 54.0 °F 38.6 °F 30.02 in West 15.0 mph 25.0 mph 56 % 0.00 in 232 W/m2
13:01 53.1 °F 37.8 °F 30.02 in West 15.0 mph 25.0 mph 56 % 0.00 in 360 W/m2
13:06 53.2 °F 38.8 °F 30.02 in WNW 13.0 mph 25.0 mph 58 % 0.00 in 367 W/m2
13:11 53.8 °F 38.4 °F 30.02 in WNW 12.0 mph 24.0 mph 56 % 0.00 in 200 W/m2
13:16 53.4 °F 38.6 °F 30.02 in WNW 11.0 mph 24.0 mph 57 % 0.00 in 258 W/m2
13:21 54.0 °F 39.1 °F 30.02 in WNW 12.0 mph 23.0 mph 57 % 0.00 in 330 W/m2
13:26 53.4 °F 38.1 °F 30.02 in West 15.0 mph 26.0 mph 56 % 0.00 in 441 W/m2
13:31 52.9 °F 38.5 °F 30.03 in West 16.0 mph 27.0 mph 58 % 0.00 in 1007 W/m2
13:36 52.9 °F 38.9 °F 30.02 in West 15.0 mph 27.0 mph 59 % 0.00 in 241 W/m2
13:41 52.5 °F 38.6 °F 30.02 in WNW 14.0 mph 23.0 mph 59 % 0.00 in 209 W/m2
13:46 52.3 °F 39.3 °F 30.02 in WNW 12.0 mph 22.0 mph 61 % 0.00 in 313 W/m2
13:51 52.5 °F 38.6 °F 30.02 in WNW 11.0 mph 19.0 mph 59 % 0.00 in 265 W/m2
13:56 52.5 °F 39.5 °F 30.02 in WNW 14.0 mph 27.0 mph 61 % 0.00 in 925 W/m2
14:01 52.9 °F 39.8 °F 30.02 in WNW 16.0 mph 27.0 mph 61 % 0.00 in 819 W/m2
14:06 53.8 °F 40.2 °F 30.02 in WNW 16.0 mph 24.0 mph 60 % 0.00 in 826 W/m2
14:11 54.1 °F 38.8 °F 30.02 in WNW 16.0 mph 29.0 mph 56 % 0.00 in 981 W/m2
14:16 54.9 °F 39.5 °F 30.02 in West 16.0 mph 30.0 mph 56 % 0.00 in 765 W/m2
14:21 55.0 °F 38.2 °F 30.02 in WNW 16.0 mph 30.0 mph 53 % 0.00 in 904 W/m2
14:26 54.7 °F 38.4 °F 30.02 in WNW 16.0 mph 28.0 mph 54 % 0.00 in 482 W/m2
14:31 54.5 °F 39.1 °F 30.02 in WNW 15.0 mph 28.0 mph 56 % 0.00 in 914 W/m2
14:36 54.9 °F 39.0 °F 30.02 in WNW 15.0 mph 29.0 mph 55 % 0.00 in 773 W/m2
14:42 54.7 °F 38.4 °F 30.03 in West 18.0 mph 29.0 mph 54 % 0.00 in 176 W/m2
14:47 54.3 °F 38.9 °F 30.02 in WNW 18.0 mph 29.0 mph 56 % 0.00 in 833 W/m2
14:57 54.0 °F 39.1 °F 30.02 in WNW 18.0 mph 29.0 mph 57 % 0.00 in 749 W/m2
15:02 54.5 °F 39.6 °F 30.02 in WNW 17.0 mph 29.0 mph 57 % 0.00 in 773 W/m2
15:07 54.9 °F 39.9 °F 30.02 in WNW 16.0 mph 26.0 mph 57 % 0.00 in 598 W/m2
15:12 54.7 °F 39.7 °F 30.03 in WNW 18.0 mph 32.0 mph 57 % 0.00 in 598 W/m2
15:17 54.1 °F 39.2 °F 30.03 in WNW 19.0 mph 32.0 mph 57 % 0.00 in 598 W/m2
15:22 53.6 °F 40.0 °F 30.03 in WNW 18.0 mph 29.0 mph 60 % 0.00 in 705 W/m2
15:27 53.6 °F 39.6 °F 30.03 in West 19.0 mph 35.0 mph 59 % 0.00 in 336 W/m2
15:32 53.4 °F 39.9 °F 30.03 in West 19.0 mph 35.0 mph 60 % 0.00 in 677 W/m2
15:37 54.0 °F 41.2 °F 30.02 in WNW 16.0 mph 29.0 mph 62 % 0.00 in 680 W/m2
15:42 54.3 °F 39.8 °F 30.02 in WNW 15.0 mph 27.0 mph 58 % 0.00 in 745 W/m2
15:47 54.5 °F 39.6 °F 30.02 in West 19.0 mph 28.0 mph 57 % 0.00 in 798 W/m2
15:52 54.9 °F 39.9 °F 30.02 in West 20.0 mph 29.0 mph 57 % 0.00 in 687 W/m2
15:57 54.9 °F 39.9 °F 30.02 in WNW 18.0 mph 29.0 mph 57 % 0.00 in 645 W/m2
16:02 54.7 °F 39.7 °F 30.02 in WNW 19.0 mph 29.0 mph 57 % 0.00 in 633 W/m2
16:07 53.8 °F 38.4 °F 30.02 in WNW 20.0 mph 29.0 mph 56 % 0.00 in 156 W/m2
16:12 53.1 °F 39.1 °F 30.02 in WNW 19.0 mph 28.0 mph 59 % 0.00 in 387 W/m2
16:17 52.5 °F 39.5 °F 30.03 in WNW 17.0 mph 28.0 mph 61 % 0.00 in 283 W/m2
16:22 52.3 °F 39.7 °F 30.03 in WNW 17.0 mph 27.0 mph 62 % 0.00 in 102 W/m2
16:27 52.2 °F 39.5 °F 30.03 in WNW 16.0 mph 26.0 mph 62 % 0.00 in 104 W/m2
16:32 51.4 °F 39.7 °F 30.04 in WNW 17.0 mph 28.0 mph 64 % 0.00 in 98 W/m2
16:37 50.7 °F 40.9 °F 30.04 in WNW 18.0 mph 28.0 mph 69 % 0.00 in 88 W/m2
16:42 50.0 °F 42.7 °F 30.04 in WNW 15.0 mph 28.0 mph 76 % 0.00 in 517 W/m2
16:48 49.6 °F 43.1 °F 30.04 in WNW 14.0 mph 22.0 mph 78 % 0.00 in 462 W/m2
16:53 49.6 °F 43.4 °F 30.03 in WNW 12.0 mph 21.0 mph 79 % 0.00 in 135 W/m2
16:58 49.6 °F 43.1 °F 30.03 in WNW 11.0 mph 21.0 mph 78 % 0.00 in 148 W/m2
17:03 50.2 °F 42.9 °F 30.03 in WNW 12.0 mph 21.0 mph 76 % 0.00 in 548 W/m2
17:08 51.1 °F 42.0 °F 30.03 in WNW 15.0 mph 30.0 mph 71 % 0.01 in 432 W/m2
17:13 51.4 °F 40.5 °F 30.03 in WNW 18.0 mph 32.0 mph 66 % 0.01 in 376 W/m2
17:18 51.6 °F 39.8 °F 30.03 in WNW 19.0 mph 32.0 mph 64 % 0.01 in 373 W/m2
17:23 51.8 °F 40.0 °F 30.03 in WNW 16.0 mph 29.0 mph 64 % 0.01 in 378 W/m2
17:28 51.6 °F 39.8 °F 30.03 in West 14.0 mph 24.0 mph 64 % 0.01 in 113 W/m2
17:33 51.3 °F 39.9 °F 30.03 in WNW 14.0 mph 24.0 mph 65 % 0.01 in 114 W/m2
17:38 50.9 °F 39.9 °F 30.04 in WNW 11.0 mph 24.0 mph 66 % 0.01 in 84 W/m2
17:43 50.5 °F 40.7 °F 30.05 in WNW 10.0 mph 24.0 mph 69 % 0.01 in 32 W/m2
17:48 49.3 °F 42.4 °F 30.05 in WNW 13.0 mph 24.0 mph 77 % 0.02 in 60 W/m2
17:54 47.7 °F 41.8 °F 30.05 in WNW 16.0 mph 25.0 mph 80 % 0.02 in 93 W/m2
17:59 46.6 °F 41.7 °F 30.05 in WNW 16.0 mph 25.0 mph 83 % 0.02 in 199 W/m2
18:04 46.2 °F 42.0 °F 30.05 in WNW 15.0 mph 25.0 mph 85 % 0.02 in 63 W/m2
18:09 45.9 °F 41.9 °F 30.05 in WNW 13.0 mph 23.0 mph 86 % 0.01 in 186 W/m2
18:14 46.0 °F 42.4 °F 30.05 in WNW 12.0 mph 21.0 mph 87 % 0.01 in 223 W/m2
18:19 46.2 °F 42.3 °F 30.04 in WNW 12.0 mph 19.0 mph 86 % 0.01 in 199 W/m2
18:24 46.6 °F 42.3 °F 30.04 in WNW 12.0 mph 21.0 mph 85 % 0.01 in 127 W/m2
18:29 46.6 °F 41.7 °F 30.04 in WNW 14.0 mph 25.0 mph 83 % 0.01 in 144 W/m2
18:34 46.8 °F 41.6 °F 30.04 in WNW 15.0 mph 25.0 mph 82 % 0.01 in 165 W/m2
18:39 46.9 °F 41.4 °F 30.05 in WNW 13.0 mph 23.0 mph 81 % 0.01 in 153 W/m2
18:44 47.3 °F 41.8 °F 30.05 in WNW 11.0 mph 20.0 mph 81 % 0.01 in 153 W/m2
18:49 47.5 °F 41.6 °F 30.06 in WNW 10.0 mph 20.0 mph 80 % 0.00 in 120 W/m2
18:59 47.5 °F 40.3 °F 30.06 in WNW 11.0 mph 21.0 mph 76 % 0.00 in 95 W/m2
19:04 47.5 °F 40.3 °F 30.06 in WNW 10.0 mph 19.0 mph 76 % 0.00 in 84 W/m2
19:09 47.5 °F 39.9 °F 30.06 in WNW 11.0 mph 21.0 mph 75 % 0.00 in 67 W/m2
19:14 47.3 °F 39.4 °F 30.06 in WNW 11.0 mph 21.0 mph 74 % 0.00 in 47 W/m2
19:19 46.9 °F 39.1 °F 30.06 in WNW 12.0 mph 20.0 mph 74 % 0.00 in 44 W/m2
19:24 46.8 °F 38.6 °F 30.07 in WNW 13.0 mph 21.0 mph 73 % 0.00 in 33 W/m2
19:29 46.6 °F 38.4 °F 30.07 in WNW 13.0 mph 21.0 mph 73 % 0.00 in 25 W/m2
19:34 46.6 °F 38.4 °F 30.07 in WNW 11.0 mph 21.0 mph 73 % 0.00 in 21 W/m2
19:39 46.2 °F 38.0 °F 30.07 in WNW 11.0 mph 18.0 mph 73 % 0.00 in 19 W/m2
19:44 46.0 °F 38.2 °F 30.07 in WNW 11.0 mph 19.0 mph 74 % 0.00 in 16 W/m2
19:49 45.9 °F 38.0 °F 30.07 in WNW 11.0 mph 19.0 mph 74 % 0.00 in 12 W/m2
19:54 45.7 °F 37.9 °F 30.07 in WNW 11.0 mph 21.0 mph 74 % 0.00 in 9 W/m2
19:59 45.3 °F 37.5 °F 30.07 in WNW 11.0 mph 21.0 mph 74 % 0.00 in 7 W/m2
20:04 45.3 °F 37.5 °F 30.07 in WNW 12.0 mph 20.0 mph 74 % 0.00 in 0 W/m2
20:09 45.1 °F 37.3 °F 30.07 in WNW 12.0 mph 22.0 mph 74 % 0.00 in 0 W/m2
20:14 45.1 °F 37.3 °F 30.07 in WNW 12.0 mph 23.0 mph 74 % 0.00 in 0 W/m2
20:19 45.0 °F 37.2 °F 30.07 in WNW 13.0 mph 23.0 mph 74 % 0.00 in 0 W/m2
20:24 45.0 °F 37.2 °F 30.07 in WNW 12.0 mph 21.0 mph 74 % 0.00 in 0 W/m2
20:29 44.8 °F 37.3 °F 30.07 in WNW 10.0 mph 19.0 mph 75 % 0.00 in 0 W/m2
20:34 44.6 °F 37.2 °F 30.08 in WNW 10.0 mph 15.0 mph 75 % 0.00 in 0 W/m2
20:39 44.4 °F 37.0 °F 30.08 in WNW 9.0 mph 15.0 mph 75 % 0.00 in 0 W/m2
20:44 44.4 °F 37.0 °F 30.08 in WNW 8.0 mph 15.0 mph 75 % 0.00 in 0 W/m2
20:49 44.2 °F 37.2 °F 30.09 in WNW 7.0 mph 15.0 mph 76 % 0.00 in 0 W/m2
20:54 44.2 °F 37.2 °F 30.09 in WNW 6.0 mph 14.0 mph 76 % 0.00 in 0 W/m2
21:00 44.1 °F 37.0 °F 30.09 in NW 6.0 mph 11.0 mph 76 % 0.00 in 0 W/m2
21:05 44.1 °F 37.3 °F 30.09 in WNW 5.0 mph 13.0 mph 77 % 0.00 in 0 W/m2
21:10 44.1 °F 37.3 °F 30.09 in WNW 6.0 mph 13.0 mph 77 % 0.00 in 0 W/m2
21:15 43.9 °F 37.1 °F 30.10 in WNW 5.0 mph 12.0 mph 77 % 0.00 in 0 W/m2
21:20 43.9 °F 37.1 °F 30.10 in NW 5.0 mph 15.0 mph 77 % 0.00 in 0 W/m2
21:25 43.9 °F 37.1 °F 30.10 in NW 5.0 mph 13.0 mph 77 % 0.00 in 0 W/m2
21:31 43.9 °F 37.1 °F 30.10 in NW 6.0 mph 13.0 mph 77 % 0.00 in 0 W/m2
21:36 43.9 °F 36.8 °F 30.10 in NW 7.0 mph 15.0 mph 76 % 0.00 in 0 W/m2
21:41 43.9 °F 36.8 °F 30.10 in NW 7.0 mph 15.0 mph 76 % 0.00 in 0 W/m2
21:46 43.9 °F 36.8 °F 30.10 in NW 7.0 mph 14.0 mph 76 % 0.00 in 0 W/m2
21:51 43.9 °F 36.8 °F 30.10 in NW 7.0 mph 13.0 mph 76 % 0.00 in 0 W/m2
21:56 43.9 °F 36.8 °F 30.10 in NW 7.0 mph 14.0 mph 76 % 0.00 in 0 W/m2
22:01 43.7 °F 36.6 °F 30.10 in NW 7.0 mph 14.0 mph 76 % 0.00 in 0 W/m2
22:06 43.7 °F 37.0 °F 30.10 in NW 7.0 mph 15.0 mph 77 % 0.00 in 0 W/m2
22:11 43.5 °F 36.8 °F 30.10 in WNW 6.0 mph 15.0 mph 77 % 0.00 in 0 W/m2
22:16 43.5 °F 36.5 °F 30.10 in WNW 7.0 mph 13.0 mph 76 % 0.00 in 0 W/m2
22:21 43.5 °F 36.8 °F 30.11 in WNW 7.0 mph 13.0 mph 77 % 0.00 in 0 W/m2
22:26 43.5 °F 36.5 °F 30.11 in WNW 7.0 mph 15.0 mph 76 % 0.00 in 0 W/m2
22:31 43.3 °F 36.3 °F 30.11 in WNW 7.0 mph 15.0 mph 76 % 0.00 in 0 W/m2
22:36 43.3 °F 36.3 °F 30.10 in WNW 7.0 mph 14.0 mph 76 % 0.00 in 0 W/m2
22:41 43.2 °F 36.1 °F 30.11 in WNW 7.0 mph 14.0 mph 76 % 0.00 in 0 W/m2
22:46 43.2 °F 36.1 °F 30.10 in WNW 8.0 mph 19.0 mph 76 % 0.00 in 0 W/m2
22:51 43.2 °F 36.1 °F 30.11 in WNW 8.0 mph 19.0 mph 76 % 0.00 in 0 W/m2
22:56 43.2 °F 36.1 °F 30.11 in WNW 7.0 mph 14.0 mph 76 % 0.00 in 0 W/m2
23:01 43.0 °F 35.9 °F 30.11 in WNW 5.0 mph 11.0 mph 76 % 0.00 in 0 W/m2
23:06 43.0 °F 36.3 °F 30.11 in WNW 4.0 mph 8.0 mph 77 % 0.00 in 0 W/m2
23:11 42.8 °F 36.1 °F 30.11 in WNW 2.0 mph 7.0 mph 77 % 0.00 in 0 W/m2
23:16 42.6 °F 35.9 °F 30.11 in WNW 2.0 mph 7.0 mph 77 % 0.00 in 0 W/m2
23:21 42.4 °F 35.7 °F 30.11 in WNW 3.0 mph 7.0 mph 77 % 0.00 in 0 W/m2
23:26 42.3 °F 35.6 °F 30.11 in WNW 3.0 mph 9.0 mph 77 % 0.00 in 0 W/m2
23:31 42.1 °F 35.4 °F 30.11 in WNW 3.0 mph 9.0 mph 77 % 0.00 in 0 W/m2
23:36 42.1 °F 35.4 °F 30.12 in West 3.0 mph 7.0 mph 77 % 0.00 in 0 W/m2
23:41 42.1 °F 35.1 °F 30.12 in West 3.0 mph 7.0 mph 76 % 0.00 in 0 W/m2
23:47 42.1 °F 35.1 °F 30.12 in West 3.0 mph 7.0 mph 76 % 0.00 in 0 W/m2
23:52 41.9 °F 35.2 °F 30.12 in West 3.0 mph 7.0 mph 77 % 0.00 in 0 W/m2
23:57 41.7 °F 35.0 °F 30.12 in West 3.0 mph 7.0 mph 77 % 0.00 in 0 W/m2
Delerius-Weather
Compliments of Weather Underground - 2.25 mb

Data updates at regular intervals.